Time;durP1;ratioP1;P1;durP2;ratioP2;P2;SDS_P1;SDS_P2;PMS_P1;PMS_P2;Temp;Humidity;BMP_temperature;BMP_pressure;BME280_temperature;BME280_humidity;BME280_pressure;Samples;Min_cycle;Max_cycle;Signal;HPM_P1;HPM_P2
2022/07/21 00:01:45;;;;;;;21.23;15.47;;;20.40;99.90;;;;;;4985167;28;20424;-60
2022/07/21 00:04:11;;;;;;;20.20;17.00;;;20.40;99.90;;;;;;4984151;28;21295;-60
2022/07/21 00:06:37;;;;;;;20.47;16.30;;;20.30;99.90;;;;;;4987217;28;20459;-61
2022/07/21 00:09:02;;;;;;;24.73;15.97;;;20.40;99.90;;;;;;4989916;28;20712;-60
2022/07/21 00:11:28;;;;;;;24.67;16.00;;;20.40;99.90;;;;;;4982882;28;20573;-61
2022/07/21 00:13:53;;;;;;;21.90;15.70;;;20.40;99.90;;;;;;4990267;28;20264;-60
2022/07/21 00:16:19;;;;;;;20.77;15.63;;;20.40;99.90;;;;;;4978638;28;20182;-60
2022/07/21 00:18:45;;;;;;;20.33;14.80;;;20.30;99.90;;;;;;4975545;28;20184;-61
2022/07/21 00:21:11;;;;;;;19.13;14.03;;;20.30;99.90;;;;;;4983958;28;20875;-60
2022/07/21 00:23:36;;;;;;;28.47;15.93;;;20.20;99.90;;;;;;4987874;28;20185;-61
2022/07/21 00:26:02;;;;;;;21.27;15.00;;;20.20;99.90;;;;;;4984136;28;20182;-61
2022/07/21 00:28:28;;;;;;;16.97;14.67;;;20.20;99.90;;;;;;4973368;28;20580;-60
2022/07/21 00:30:53;;;;;;;26.93;15.90;;;20.20;99.90;;;;;;4990014;28;20185;-60
2022/07/21 00:33:19;;;;;;;16.73;14.30;;;20.10;99.90;;;;;;4983417;28;20248;-60
2022/07/21 00:35:45;;;;;;;23.67;14.87;;;20.20;99.90;;;;;;4987515;28;20230;-60
2022/07/21 00:38:10;;;;;;;21.90;16.23;;;20.10;99.90;;;;;;4989493;28;20771;-61
2022/07/21 00:40:36;;;;;;;19.13;15.47;;;20.10;99.90;;;;;;4989066;28;20185;-61
2022/07/21 00:43:02;;;;;;;24.30;17.60;;;20.10;99.90;;;;;;4982171;28;20745;-61
2022/07/21 00:45:27;;;;;;;21.93;16.23;;;20.10;99.90;;;;;;4981620;28;20824;-59
2022/07/21 00:47:53;;;;;;;20.87;17.50;;;20.10;99.90;;;;;;4985862;28;20209;-60
2022/07/21 00:50:20;;;;;;;20.10;15.80;;;20.20;99.90;;;;;;4986306;28;20688;-60
2022/07/21 00:52:46;;;;;;;25.93;16.90;;;20.20;99.90;;;;;;4994791;28;20184;-60
2022/07/21 00:55:15;;;;;;;24.97;15.87;;;20.20;99.90;;;;;;4984495;28;20429;-60
2022/07/21 00:57:42;;;;;;;19.70;17.30;;;20.20;99.90;;;;;;4989874;28;20462;-61
2022/07/21 01:00:11;;;;;;;19.77;15.90;;;20.20;99.90;;;;;;4979214;28;20436;-60
2022/07/21 01:02:36;;;;;;;19.50;16.20;;;20.20;99.90;;;;;;4988895;28;20801;-60
2022/07/21 01:05:12;;;;;;;18.67;15.13;;;20.10;99.90;;;;;;4978756;28;20444;-59
2022/07/21 01:07:38;;;;;;;21.93;16.17;;;20.10;99.90;;;;;;4990930;28;22607;-60
2022/07/21 01:10:04;;;;;;;23.50;15.50;;;20.10;99.90;;;;;;4987646;28;20443;-60
2022/07/21 01:12:30;;;;;;;22.00;16.30;;;20.10;99.90;;;;;;4988473;28;20429;-60
2022/07/21 01:14:56;;;;;;;20.67;16.27;;;20.10;99.90;;;;;;4984643;28;20300;-60
2022/07/21 01:17:22;;;;;;;22.70;17.17;;;20.10;99.90;;;;;;4986009;28;20197;-59
2022/07/21 01:19:48;;;;;;;21.03;15.93;;;20.10;99.90;;;;;;4982290;28;20436;-60
2022/07/21 01:22:14;;;;;;;20.23;16.77;;;20.10;99.90;;;;;;4984908;28;20209;-61
2022/07/21 01:24:40;;;;;;;23.47;16.80;;;20.10;99.90;;;;;;4984376;28;20474;-60
2022/07/21 01:27:05;;;;;;;20.27;16.20;;;20.10;99.90;;;;;;4989741;28;20300;-60
2022/07/21 01:29:31;;;;;;;20.63;17.00;;;20.10;99.90;;;;;;4981085;28;20235;-60
2022/07/21 01:31:56;;;;;;;22.07;15.83;;;20.10;99.90;;;;;;4985951;28;20223;-61
2022/07/21 01:34:22;;;;;;;23.40;16.07;;;20.20;99.90;;;;;;4985690;28;20264;-61
2022/07/21 01:36:48;;;;;;;24.50;16.10;;;20.20;99.90;;;;;;4993048;28;20192;-61
2022/07/21 01:41:58;;;;;;;20.97;16.10;;;20.10;99.90;;;;;;4980567;28;20200;-61
2022/07/21 01:44:24;;;;;;;21.63;17.60;;;20.10;99.90;;;;;;4991888;28;20432;-61
2022/07/21 01:46:51;;;;;;;22.13;16.30;;;20.10;99.90;;;;;;4986304;28;20235;-61
2022/07/21 01:49:19;;;;;;;24.10;17.43;;;20.10;99.90;;;;;;4984536;28;20856;-61
2022/07/21 01:51:45;;;;;;;23.80;19.50;;;20.10;99.90;;;;;;4991170;28;20842;-60
2022/07/21 01:54:11;;;;;;;23.00;16.70;;;20.10;99.90;;;;;;4975661;28;20432;-61
2022/07/21 01:56:38;;;;;;;25.60;18.10;;;20.10;99.90;;;;;;4991431;28;20259;-60
2022/07/21 01:59:05;;;;;;;22.40;17.93;;;20.10;99.90;;;;;;4993468;28;20435;-62
2022/07/21 02:01:31;;;;;;;22.93;16.60;;;20.10;99.90;;;;;;4986503;28;20800;-60
2022/07/21 02:03:59;;;;;;;22.70;17.30;;;20.10;99.90;;;;;;4994099;28;20524;-60
2022/07/21 02:06:26;;;;;;;25.83;17.33;;;20.10;99.90;;;;;;4990865;28;20506;-61
2022/07/21 02:08:51;;;;;;;19.53;16.70;;;20.10;99.90;;;;;;4997289;28;20427;-61
2022/07/21 02:11:17;;;;;;;19.63;16.90;;;20.10;99.90;;;;;;4977961;28;20425;-60
2022/07/21 02:13:44;;;;;;;21.20;17.20;;;20.10;99.90;;;;;;4987453;28;20206;-61
2022/07/21 02:16:10;;;;;;;22.90;17.00;;;20.10;99.90;;;;;;4987984;28;20173;-62
2022/07/21 02:18:36;;;;;;;23.17;16.63;;;20.00;99.90;;;;;;4984911;28;21009;-60
2022/07/21 02:21:02;;;;;;;19.60;16.73;;;20.00;99.90;;;;;;4993880;28;20197;-61
2022/07/21 02:23:28;;;;;;;22.17;16.57;;;20.00;99.90;;;;;;4996730;28;21145;-61
2022/07/21 02:25:54;;;;;;;19.53;16.23;;;20.00;99.90;;;;;;4983066;28;20547;-60
2022/07/21 02:28:20;;;;;;;21.93;15.97;;;20.00;99.90;;;;;;4981460;28;20243;-60
2022/07/21 02:30:47;;;;;;;20.87;16.33;;;19.90;99.90;;;;;;4988949;28;20428;-61
2022/07/21 02:33:13;;;;;;;21.23;17.10;;;19.90;99.90;;;;;;4987548;28;20535;-62
2022/07/21 02:35:39;;;;;;;19.80;16.00;;;19.90;99.90;;;;;;4982754;28;20516;-62
2022/07/21 02:38:05;;;;;;;19.57;16.07;;;19.90;99.90;;;;;;4995572;28;20579;-62
2022/07/21 02:40:31;;;;;;;18.23;15.90;;;19.90;99.90;;;;;;4989889;28;20534;-60
2022/07/21 02:42:57;;;;;;;22.60;16.63;;;19.90;99.90;;;;;;4986225;28;20189;-61
2022/07/21 02:45:23;;;;;;;24.17;17.07;;;19.90;99.90;;;;;;4986138;28;20436;-61
2022/07/21 02:47:55;;;;;;;21.60;17.00;;;19.90;99.90;;;;;;4978144;28;20725;-62
2022/07/21 02:50:24;;;;;;;21.90;17.83;;;19.90;99.90;;;;;;4988879;28;20426;-62
2022/07/21 02:52:50;;;;;;;26.37;16.57;;;19.90;99.90;;;;;;4986867;28;20512;-62
2022/07/21 02:55:16;;;;;;;18.60;16.17;;;19.90;99.90;;;;;;4987206;28;21142;-61
2022/07/21 02:57:42;;;;;;;18.60;15.90;;;19.90;99.90;;;;;;4991615;28;20193;-62
2022/07/21 03:00:09;;;;;;;22.77;16.60;;;19.90;99.90;;;;;;4988013;28;20425;-61
2022/07/21 03:02:35;;;;;;;20.87;16.33;;;19.90;99.90;;;;;;4975982;28;20177;-61
2022/07/21 03:05:02;;;;;;;23.57;16.70;;;19.90;99.90;;;;;;4985170;28;20952;-61
2022/07/21 03:07:27;;;;;;;23.07;17.40;;;19.90;99.90;;;;;;4981980;28;20551;-61
2022/07/21 03:09:53;;;;;;;19.40;15.90;;;19.90;99.90;;;;;;4985334;28;20582;-60
2022/07/21 03:12:18;;;;;;;19.20;16.17;;;19.90;99.90;;;;;;4990517;28;20643;-61
2022/07/21 03:14:44;;;;;;;20.03;16.23;;;19.90;99.90;;;;;;4989743;28;20189;-60
2022/07/21 03:17:10;;;;;;;22.00;17.30;;;19.90;99.90;;;;;;4981059;28;20213;-61
2022/07/21 03:19:36;;;;;;;25.20;16.63;;;19.90;99.90;;;;;;4987193;28;20181;-62
2022/07/21 03:22:01;;;;;;;26.07;17.70;;;19.90;99.90;;;;;;4992000;28;20173;-60
2022/07/21 03:24:29;;;;;;;20.73;16.80;;;19.90;99.90;;;;;;4990014;28;20181;-61
2022/07/21 03:26:55;;;;;;;20.57;15.87;;;19.90;99.90;;;;;;4980201;28;20637;-61
2022/07/21 03:29:21;;;;;;;20.63;16.30;;;19.90;99.90;;;;;;4989697;28;20428;-61
2022/07/21 03:31:46;;;;;;;20.43;14.97;;;19.90;99.90;;;;;;4986889;28;21087;-61
2022/07/21 03:34:12;;;;;;;19.07;16.00;;;19.90;99.90;;;;;;4974690;28;21779;-60
2022/07/21 03:36:38;;;;;;;18.60;15.73;;;19.90;99.90;;;;;;4982006;28;20185;-61
2022/07/21 03:39:03;;;;;;;21.87;17.03;;;19.90;99.90;;;;;;4985709;28;20185;-61
2022/07/21 03:41:30;;;;;;;22.40;17.67;;;19.90;99.90;;;;;;4983482;28;20205;-61
2022/07/21 03:43:56;;;;;;;20.50;17.30;;;19.90;99.90;;;;;;4983000;28;20503;-61
2022/07/21 03:46:22;;;;;;;23.67;16.57;;;19.90;99.90;;;;;;4982598;28;20336;-60
2022/07/21 03:48:47;;;;;;;20.07;16.53;;;19.80;99.90;;;;;;4975117;28;20210;-59
2022/07/21 03:51:13;;;;;;;20.60;15.57;;;19.80;99.90;;;;;;4979151;28;20433;-60
2022/07/21 03:53:39;;;;;;;18.17;15.47;;;19.80;99.90;;;;;;4985737;28;20261;-60
2022/07/21 03:56:05;;;;;;;20.20;16.10;;;19.80;99.90;;;;;;4976099;28;20452;-60
2022/07/21 03:58:30;;;;;;;20.77;16.57;;;19.80;99.90;;;;;;4979871;28;20248;-58
2022/07/21 04:00:56;;;;;;;20.57;15.73;;;19.80;99.90;;;;;;4976327;28;20181;-61
2022/07/21 04:03:21;;;;;;;22.53;16.70;;;19.80;99.90;;;;;;4976314;28;20255;-60
2022/07/21 04:05:47;;;;;;;21.40;16.10;;;19.80;99.90;;;;;;4985222;28;20246;-59
2022/07/21 04:08:13;;;;;;;19.50;16.17;;;19.80;99.90;;;;;;4987226;28;20679;-62
2022/07/21 04:10:41;;;;;;;17.80;15.47;;;19.80;99.90;;;;;;4978401;28;20181;-60
2022/07/21 04:13:09;;;;;;;17.83;15.13;;;19.90;99.90;;;;;;4980057;28;20503;-60
2022/07/21 04:15:35;;;;;;;22.50;17.27;;;19.90;99.90;;;;;;4974117;28;20913;-63
2022/07/21 04:18:01;;;;;;;20.83;15.30;;;19.90;99.90;;;;;;4980172;28;20463;-62
2022/07/21 04:20:27;;;;;;;23.07;17.53;;;19.90;99.90;;;;;;4976723;28;20440;-62
2022/07/21 04:22:53;;;;;;;21.10;16.87;;;19.90;99.90;;;;;;4983228;28;20439;-59
2022/07/21 04:25:19;;;;;;;21.17;16.50;;;19.80;99.90;;;;;;4980047;28;20177;-59
2022/07/21 04:27:46;;;;;;;20.10;13.87;;;19.90;99.90;;;;;;4982706;28;20208;-60
2022/07/21 04:30:16;;;;;;;22.97;17.00;;;19.80;99.90;;;;;;4988757;28;20436;-61
2022/07/21 04:32:42;;;;;;;23.33;15.50;;;19.80;99.90;;;;;;4975199;28;20440;-62
2022/07/21 04:35:08;;;;;;;23.83;16.10;;;19.80;99.90;;;;;;4983054;28;21107;-63
2022/07/21 04:37:34;;;;;;;21.90;17.33;;;19.80;99.90;;;;;;4977539;28;20475;-62
2022/07/21 04:40:01;;;;;;;19.87;15.10;;;19.70;99.90;;;;;;4983803;28;20432;-61
2022/07/21 04:42:27;;;;;;;20.37;16.47;;;19.70;99.90;;;;;;4985974;28;20464;-61
2022/07/21 04:44:52;;;;;;;18.97;15.63;;;19.70;99.90;;;;;;4977832;28;20527;-61
2022/07/21 04:47:18;;;;;;;17.97;15.30;;;19.70;99.90;;;;;;4977420;28;20591;-60
2022/07/21 04:49:44;;;;;;;20.30;15.63;;;19.70;99.90;;;;;;4985593;28;20185;-60
2022/07/21 04:52:10;;;;;;;19.17;15.67;;;19.80;99.90;;;;;;4979641;28;20173;-59
2022/07/21 04:54:36;;;;;;;20.33;15.67;;;19.80;99.90;;;;;;4987344;28;20188;-60
2022/07/21 04:57:03;;;;;;;19.17;15.70;;;19.70;99.90;;;;;;4987146;28;20207;-60
2022/07/21 04:59:30;;;;;;;22.70;16.63;;;19.80;99.90;;;;;;4980662;28;20236;-65
2022/07/21 05:01:56;;;;;;;23.00;17.17;;;19.80;99.90;;;;;;4975147;28;20436;-59
2022/07/21 05:04:22;;;;;;;19.00;15.50;;;19.80;99.90;;;;;;4989105;28;20799;-61
2022/07/21 05:06:47;;;;;;;19.67;15.93;;;19.80;99.90;;;;;;4988958;28;20476;-64
2022/07/21 05:09:14;;;;;;;24.87;17.13;;;19.80;99.90;;;;;;4987789;28;20190;-62
2022/07/21 05:11:40;;;;;;;19.20;16.00;;;19.80;99.90;;;;;;4980276;28;20228;-63
2022/07/21 05:14:05;;;;;;;20.33;15.73;;;19.80;99.90;;;;;;4991729;28;20484;-63
2022/07/21 05:16:31;;;;;;;24.80;16.20;;;19.80;99.90;;;;;;4999268;28;20901;-60
2022/07/21 05:18:57;;;;;;;23.10;15.63;;;19.80;99.90;;;;;;4983285;28;20257;-59
2022/07/21 05:21:22;;;;;;;21.13;17.33;;;19.80;99.90;;;;;;4981798;28;20702;-59
2022/07/21 05:23:48;;;;;;;21.47;17.40;;;19.80;99.90;;;;;;5008304;28;20188;-61
2022/07/21 05:26:14;;;;;;;19.77;17.40;;;19.80;99.90;;;;;;4982541;28;20194;-61
2022/07/21 05:28:40;;;;;;;25.90;18.00;;;19.80;99.90;;;;;;4990471;28;20208;-59
2022/07/21 05:31:06;;;;;;;23.10;18.23;;;19.80;99.90;;;;;;4989397;28;20688;-61
2022/07/21 05:33:32;;;;;;;24.13;17.13;;;19.70;99.90;;;;;;4995165;28;20441;-62
2022/07/21 05:35:58;;;;;;;28.77;18.77;;;19.80;99.90;;;;;;5004098;28;20793;-62
2022/07/21 05:38:23;;;;;;;22.70;18.17;;;19.80;99.90;;;;;;5001356;28;20207;-63
2022/07/21 05:40:49;;;;;;;23.17;17.00;;;19.90;99.90;;;;;;4996911;28;20228;-62
2022/07/21 05:43:15;;;;;;;20.97;16.27;;;19.90;99.90;;;;;;4989651;28;20184;-62
2022/07/21 05:45:40;;;;;;;26.23;18.30;;;19.90;99.90;;;;;;4978881;28;20216;-62
2022/07/21 05:48:06;;;;;;;21.57;17.03;;;20.00;99.90;;;;;;4995755;28;20208;-60
2022/07/21 05:50:32;;;;;;;30.00;17.57;;;20.00;99.90;;;;;;4989893;28;20208;-59
2022/07/21 05:52:57;;;;;;;22.30;16.27;;;20.00;99.90;;;;;;4989734;28;20524;-62
2022/07/21 05:55:23;;;;;;;26.97;16.87;;;19.90;99.90;;;;;;4982617;28;20316;-63
2022/07/21 05:57:49;;;;;;;20.83;16.50;;;19.90;99.90;;;;;;4985156;28;20200;-61
2022/07/21 06:00:16;;;;;;;21.23;17.00;;;19.90;99.90;;;;;;4986708;28;20646;-58
2022/07/21 06:02:43;;;;;;;25.13;17.83;;;20.00;99.90;;;;;;4982785;28;20216;-62
2022/07/21 06:05:10;;;;;;;20.37;15.50;;;20.00;99.90;;;;;;4997760;28;20463;-60
2022/07/21 06:07:36;;;;;;;20.70;16.30;;;20.00;99.90;;;;;;4987982;28;20906;-61
2022/07/21 06:10:03;;;;;;;22.63;16.40;;;20.10;99.90;;;;;;4990069;28;20444;-61
2022/07/21 06:12:29;;;;;;;19.50;15.63;;;20.00;99.90;;;;;;4985969;28;20434;-59
2022/07/21 06:14:55;;;;;;;25.80;16.43;;;20.10;99.90;;;;;;4990510;28;20417;-61
2022/07/21 06:17:21;;;;;;;30.20;15.27;;;20.20;99.90;;;;;;4987510;28;20212;-60
2022/07/21 06:19:47;;;;;;;25.83;16.70;;;20.30;99.90;;;;;;4987142;28;20467;-59
2022/07/21 06:22:13;;;;;;;20.13;15.07;;;20.40;99.90;;;;;;5005352;28;20458;-62
2022/07/21 06:24:39;;;;;;;24.30;16.37;;;20.40;99.90;;;;;;4990306;28;20781;-60
2022/07/21 06:27:04;;;;;;;23.07;16.30;;;20.40;99.90;;;;;;4993771;28;20236;-62
2022/07/21 06:29:30;;;;;;;25.13;17.50;;;20.40;99.90;;;;;;4991385;28;20736;-61
2022/07/21 06:31:56;;;;;;;23.97;16.17;;;20.50;99.90;;;;;;4989081;28;20185;-60
2022/07/21 06:34:21;;;;;;;21.80;15.80;;;20.50;99.90;;;;;;4985124;28;20177;-59
2022/07/21 06:36:47;;;;;;;19.30;15.37;;;20.50;99.90;;;;;;4985262;28;20210;-62
2022/07/21 06:39:13;;;;;;;19.33;16.33;;;20.50;99.90;;;;;;4977322;28;20659;-58
2022/07/21 06:41:39;;;;;;;19.33;16.00;;;20.50;99.90;;;;;;4983154;28;20192;-59
2022/07/21 06:44:05;;;;;;;18.77;15.23;;;20.50;99.90;;;;;;4990390;28;20185;-61
2022/07/21 06:46:32;;;;;;;20.93;16.80;;;20.60;99.90;;;;;;4986045;28;20498;-59
2022/07/21 06:48:57;;;;;;;25.43;15.70;;;20.70;99.90;;;;;;4989404;28;20284;-61
2022/07/21 06:51:23;;;;;;;19.57;14.87;;;20.80;99.90;;;;;;4972071;28;20872;-59
2022/07/21 06:53:48;;;;;;;23.87;14.53;;;21.00;99.90;;;;;;4982480;28;20184;-59
2022/07/21 06:56:16;;;;;;;22.33;13.70;;;21.10;99.90;;;;;;4985553;28;20185;-58
2022/07/21 06:58:41;;;;;;;18.67;13.60;;;21.20;99.90;;;;;;4983568;28;20205;-60
2022/07/21 07:01:07;;;;;;;16.63;12.87;;;21.30;99.90;;;;;;4984471;28;20526;-62
2022/07/21 07:03:33;;;;;;;15.80;11.90;;;21.30;99.90;;;;;;4988244;28;20173;-65
2022/07/21 07:05:59;;;;;;;12.97;11.03;;;21.40;99.90;;;;;;4988815;28;20172;-61
2022/07/21 07:08:24;;;;;;;15.30;12.00;;;21.50;99.90;;;;;;4988824;28;20463;-61
2022/07/21 07:10:50;;;;;;;15.80;11.10;;;21.50;99.90;;;;;;4983670;28;20177;-61
2022/07/21 07:13:17;;;;;;;19.33;11.57;;;21.50;99.90;;;;;;4990192;28;20185;-59
2022/07/21 07:15:43;;;;;;;16.33;11.00;;;21.50;99.90;;;;;;4984432;28;20683;-62
2022/07/21 07:18:09;;;;;;;18.10;11.93;;;21.50;99.90;;;;;;4987497;28;20455;-65
2022/07/21 07:20:35;;;;;;;14.43;10.80;;;21.50;99.90;;;;;;4987848;28;20429;-63
2022/07/21 07:23:01;;;;;;;15.20;11.77;;;21.50;99.90;;;;;;4984411;28;20225;-62
2022/07/21 07:25:26;;;;;;;18.10;12.20;;;21.60;99.90;;;;;;4992086;28;20216;-60
2022/07/21 07:27:55;;;;;;;16.20;11.90;;;21.70;99.90;;;;;;4986349;28;20267;-60
2022/07/21 07:30:20;;;;;;;14.50;10.97;;;21.70;99.90;;;;;;4988067;28;20211;-63
2022/07/21 07:32:47;;;;;;;17.30;10.63;;;21.80;99.90;;;;;;4983071;28;20945;-60
2022/07/21 07:35:14;;;;;;;18.17;11.60;;;21.80;99.90;;;;;;4984771;28;20609;-60
2022/07/21 07:37:41;;;;;;;13.77;10.83;;;21.70;99.90;;;;;;4985198;28;21974;-65
2022/07/21 07:40:10;;;;;;;17.53;11.50;;;21.60;99.90;;;;;;4981805;28;20447;-61
2022/07/21 07:42:37;;;;;;;17.17;11.20;;;21.60;99.90;;;;;;4983261;28;20495;-63
2022/07/21 07:45:05;;;;;;;14.13;10.80;;;21.50;99.90;;;;;;4984167;28;20448;-59
2022/07/21 07:47:31;;;;;;;16.53;11.17;;;21.30;99.90;;;;;;4984760;28;21070;-61
2022/07/21 07:49:57;;;;;;;15.77;11.60;;;21.20;99.90;;;;;;4981196;28;20508;-62
2022/07/21 07:52:23;;;;;;;16.60;11.67;;;21.10;99.90;;;;;;4985251;28;20592;-61
2022/07/21 07:54:49;;;;;;;14.70;11.37;;;21.00;99.90;;;;;;4980074;28;20182;-62
2022/07/21 07:57:14;;;;;;;18.80;11.67;;;21.00;99.90;;;;;;4987693;28;20860;-62
2022/07/21 07:59:40;;;;;;;16.90;11.40;;;21.10;99.90;;;;;;4987645;28;20678;-61
2022/07/21 08:02:06;;;;;;;18.67;11.60;;;21.30;99.90;;;;;;4985518;28;20196;-60
2022/07/21 08:04:31;;;;;;;15.17;12.03;;;21.40;99.90;;;;;;4990871;28;20669;-60
2022/07/21 08:06:57;;;;;;;16.27;11.03;;;21.50;99.90;;;;;;4986448;28;20284;-60
2022/07/21 08:09:23;;;;;;;15.87;10.70;;;21.60;99.90;;;;;;4993938;28;20181;-64
2022/07/21 08:11:50;;;;;;;14.77;10.87;;;21.60;99.90;;;;;;4983729;28;20176;-60
2022/07/21 08:14:16;;;;;;;16.40;10.40;;;21.70;99.90;;;;;;4988975;28;20246;-60
2022/07/21 08:16:43;;;;;;;15.30;10.50;;;21.80;99.90;;;;;;4990093;28;20452;-60
2022/07/21 08:19:09;;;;;;;15.73;10.90;;;21.80;99.90;;;;;;4989734;28;20461;-63
2022/07/21 08:21:35;;;;;;;19.70;10.00;;;21.80;99.90;;;;;;4987020;28;20448;-60
2022/07/21 08:24:01;;;;;;;12.63;9.43;;;21.90;99.90;;;;;;4992679;28;20448;-60
2022/07/21 08:26:27;;;;;;;11.97;8.60;;;21.90;99.90;;;;;;4989992;28;20961;-61
2022/07/21 08:28:54;;;;;;;13.40;9.10;;;22.00;99.10;;;;;;4987227;28;20601;-59
2022/07/21 08:31:20;;;;;;;16.30;8.90;;;22.10;98.50;;;;;;4983702;28;20201;-61
2022/07/21 08:33:45;;;;;;;12.00;8.47;;;22.30;98.90;;;;;;4989211;28;20503;-60
2022/07/21 08:36:11;;;;;;;16.03;9.30;;;22.30;95.50;;;;;;4989010;28;20428;-60
2022/07/21 08:38:37;;;;;;;9.07;7.47;;;22.50;95.80;;;;;;4980749;28;20666;-60
2022/07/21 08:41:03;;;;;;;11.17;8.77;;;22.60;95.90;;;;;;4982355;28;20181;-60
2022/07/21 08:43:29;;;;;;;11.53;9.20;;;22.60;92.80;;;;;;4989554;28;20256;-61
2022/07/21 08:45:55;;;;;;;8.50;7.60;;;22.50;93.70;;;;;;4986281;28;20487;-61
2022/07/21 08:48:26;;;;;;;9.13;8.10;;;22.50;95.50;;;;;;4986856;28;20597;-60
2022/07/21 08:50:52;;;;;;;9.80;8.07;;;22.40;92.50;;;;;;4983086;28;20432;-61
2022/07/21 08:53:18;;;;;;;9.03;6.90;;;22.40;93.90;;;;;;4988918;28;20428;-59
2022/07/21 08:55:43;;;;;;;14.30;8.17;;;22.40;92.30;;;;;;4984917;28;20830;-60
2022/07/21 08:58:10;;;;;;;11.20;8.30;;;22.30;93.60;;;;;;4982550;28;20228;-62
2022/07/21 09:00:39;;;;;;;10.90;9.27;;;22.30;95.40;;;;;;4977366;28;20181;-59
2022/07/21 09:03:20;;;;;;;12.70;8.70;;;22.30;98.10;;;;;;4988250;28;20432;-61
2022/07/21 09:06:11;;;;;;;11.67;9.30;;;22.50;96.90;;;;;;4991013;28;20432;-60
2022/07/21 09:08:48;;;;;;;12.07;8.03;;;22.70;97.50;;;;;;4984843;28;20459;-62
2022/07/21 09:11:24;;;;;;;13.17;9.00;;;22.90;96.40;;;;;;4987965;28;20439;-61
2022/07/21 09:14:05;;;;;;;12.10;8.00;;;23.00;90.10;;;;;;4978781;28;20432;-62
2022/07/21 09:16:43;;;;;;;13.00;8.50;;;23.00;91.40;;;;;;4985271;28;20455;-60
2022/07/21 09:19:31;;;;;;;15.90;8.37;;;23.20;92.90;;;;;;4986491;28;20538;-61
2022/07/21 09:21:59;;;;;;;9.50;8.23;;;23.50;92.40;;;;;;4986009;28;20463;-61
2022/07/21 09:24:31;;;;;;;8.97;8.07;;;23.70;79.50;;;;;;4982599;28;20994;-62
2022/07/21 09:27:06;;;;;;;12.00;7.70;;;23.70;78.30;;;;;;4987731;28;20476;-60
2022/07/21 09:29:39;;;;;;;9.13;7.83;;;23.70;77.90;;;;;;4988153;28;20555;-60
2022/07/21 09:32:24;;;;;;;8.67;7.77;;;23.70;75.80;;;;;;4980579;28;20528;-60
2022/07/21 09:34:58;;;;;;;7.83;7.03;;;23.80;74.50;;;;;;4983536;28;20421;-63
2022/07/21 09:37:24;;;;;;;13.23;8.13;;;23.80;69.60;;;;;;4985732;28;20428;-61
2022/07/21 09:40:06;;;;;;;11.17;8.00;;;23.90;72.20;;;;;;4983926;28;20471;-62
2022/07/21 09:42:44;;;;;;;9.77;7.80;;;24.10;73.40;;;;;;4982744;28;20554;-62
2022/07/21 09:45:12;;;;;;;10.90;7.97;;;24.40;71.60;;;;;;4986265;28;20428;-65
2022/07/21 09:47:39;;;;;;;10.13;8.30;;;24.60;68.80;;;;;;4986076;28;20479;-60
2022/07/21 09:50:07;;;;;;;9.70;8.10;;;24.60;66.10;;;;;;4986170;28;20446;-60
2022/07/21 09:52:38;;;;;;;10.43;7.67;;;24.60;67.30;;;;;;4985172;28;20428;-60
2022/07/21 09:55:09;;;;;;;10.60;7.60;;;24.70;67.70;;;;;;4990764;28;20440;-60
2022/07/21 09:57:35;;;;;;;10.43;6.80;;;24.80;61.20;;;;;;4985140;28;20468;-60
2022/07/21 10:00:04;;;;;;;8.40;7.60;;;24.70;61.40;;;;;;4984983;28;20494;-58
2022/07/21 10:02:31;;;;;;;11.30;7.70;;;24.70;64.70;;;;;;4983192;28;20424;-61
2022/07/21 10:05:07;;;;;;;13.20;7.67;;;24.60;66.80;;;;;;4983430;28;20799;-60
2022/07/21 10:07:36;;;;;;;9.73;7.40;;;24.70;69.20;;;;;;4985005;28;20503;-63
2022/07/21 10:10:04;;;;;;;11.63;8.10;;;24.90;67.50;;;;;;4990071;28;21174;-62
2022/07/21 10:12:29;;;;;;;7.67;6.90;;;25.20;67.40;;;;;;4991017;28;20436;-59
2022/07/21 10:14:55;;;;;;;8.47;6.80;;;25.40;62.80;;;;;;4990545;28;20419;-60
2022/07/21 10:17:22;;;;;;;11.07;6.93;;;25.50;60.90;;;;;;4988204;28;20748;-61
2022/07/21 10:20:11;;;;;;;8.40;6.83;;;25.40;59.10;;;;;;4982110;28;20177;-62
2022/07/21 10:23:02;;;;;;;8.93;7.00;;;25.30;59.20;;;;;;4978430;28;20443;-61
2022/07/21 10:25:28;;;;;;;8.10;7.00;;;25.30;58.00;;;;;;4979105;28;21244;-59
2022/07/21 10:28:13;;;;;;;10.37;7.40;;;25.50;59.50;;;;;;4972858;28;20547;-59
2022/07/21 10:30:40;;;;;;;7.70;6.57;;;25.60;58.00;;;;;;4986896;28;20176;-59
2022/07/21 10:33:06;;;;;;;7.90;6.27;;;25.40;56.60;;;;;;4987126;28;20444;-59
2022/07/21 10:35:32;;;;;;;9.47;7.40;;;25.40;56.30;;;;;;4992074;28;20755;-60
2022/07/21 10:38:01;;;;;;;7.43;6.33;;;25.60;58.00;;;;;;4992697;28;20216;-59
2022/07/21 10:40:29;;;;;;;9.50;6.40;;;25.80;56.80;;;;;;4978692;28;21177;-59
2022/07/21 10:43:01;;;;;;;8.80;6.97;;;26.10;56.30;;;;;;4985588;28;20444;-63
2022/07/21 10:45:31;;;;;;;7.97;6.20;;;26.30;55.30;;;;;;4988831;28;20435;-59
2022/07/21 10:47:57;;;;;;;8.40;7.10;;;26.60;55.00;;;;;;4990038;28;20590;-59
2022/07/21 10:50:38;;;;;;;6.87;5.97;;;26.80;54.50;;;;;;4985773;28;20508;-60
2022/07/21 10:53:09;;;;;;;8.90;6.70;;;26.90;52.70;;;;;;4983095;28;20590;-65
2022/07/21 10:55:36;;;;;;;7.37;6.67;;;26.70;51.70;;;;;;4991392;28;20439;-62
2022/07/21 10:58:24;;;;;;;6.73;6.13;;;26.70;53.70;;;;;;4986080;28;20478;-64
2022/07/21 11:00:58;;;;;;;19.60;6.77;;;26.50;54.40;;;;;;4973195;28;20432;-61
2022/07/21 11:03:38;;;;;;;7.10;6.03;;;26.30;54.40;;;;;;4988342;28;20439;-65
2022/07/21 11:06:14;;;;;;;7.53;6.20;;;26.00;53.10;;;;;;4990509;28;20436;-60
2022/07/21 11:08:45;;;;;;;9.63;6.73;;;25.90;53.00;;;;;;4987484;28;20460;-60
2022/07/21 11:11:20;;;;;;;7.17;5.80;;;26.10;54.00;;;;;;4972346;28;20405;-60
2022/07/21 11:14:07;;;;;;;7.63;5.97;;;26.30;51.80;;;;;;4983067;28;20933;-59
2022/07/21 11:16:41;;;;;;;7.57;5.87;;;26.50;51.40;;;;;;4977647;28;20523;-61
2022/07/21 11:19:41;;;;;;;6.87;5.40;;;26.80;53.00;;;;;;4981822;28;21176;-62
2022/07/21 11:22:21;;;;;;;12.73;5.23;;;27.00;49.90;;;;;;4988357;28;20513;-58
2022/07/21 11:24:58;;;;;;;6.80;5.90;;;27.10;48.80;;;;;;4990640;28;20539;-63
2022/07/21 11:27:27;;;;;;;6.50;5.60;;;27.10;48.30;;;;;;4989061;28;20558;-64
2022/07/21 11:29:57;;;;;;;5.10;4.60;;;27.00;48.50;;;;;;4985783;28;20436;-60
2022/07/21 11:32:24;;;;;;;6.53;5.10;;;26.80;48.70;;;;;;4987597;28;20251;-66
2022/07/21 11:34:56;;;;;;;14.20;5.20;;;26.90;49.70;;;;;;4984297;28;20913;-61
2022/07/21 11:37:31;;;;;;;6.13;5.23;;;27.00;49.90;;;;;;4994373;28;20454;-60
2022/07/21 11:39:57;;;;;;;7.00;4.40;;;27.20;50.10;;;;;;4991614;28;20442;-60
2022/07/21 11:42:25;;;;;;;5.83;4.50;;;27.20;49.20;;;;;;4984699;28;20470;-63
2022/07/21 11:44:51;;;;;;;6.00;4.43;;;27.20;49.90;;;;;;4989233;28;20180;-60
2022/07/21 11:47:17;;;;;;;5.13;4.63;;;27.20;49.80;;;;;;4982344;28;20213;-59
2022/07/21 11:49:43;;;;;;;4.50;3.97;;;27.20;48.60;;;;;;4990119;28;20169;-59
2022/07/21 11:52:17;;;;;;;5.70;4.40;;;27.30;49.00;;;;;;4972835;28;20188;-59
2022/07/21 11:54:45;;;;;;;4.50;3.83;;;27.30;49.40;;;;;;4986470;28;20173;-59
2022/07/21 11:57:12;;;;;;;5.00;4.50;;;27.20;48.00;;;;;;4985074;28;20606;-61
2022/07/21 11:59:40;;;;;;;5.80;4.30;;;27.20;48.10;;;;;;4985169;28;20204;-62
2022/07/21 12:02:12;;;;;;;6.23;3.87;;;27.10;49.70;;;;;;4981637;28;20181;-62
2022/07/21 12:04:41;;;;;;;9.57;4.00;;;27.00;50.30;;;;;;4983216;28;20783;-60
2022/07/21 12:07:15;;;;;;;6.17;3.67;;;26.90;49.90;;;;;;4988678;28;20208;-60
2022/07/21 12:09:43;;;;;;;5.93;4.60;;;26.80;48.90;;;;;;4986272;28;20649;-61
2022/07/21 12:12:09;;;;;;;5.37;4.53;;;26.80;48.30;;;;;;4990113;28;20181;-60
2022/07/21 12:14:49;;;;;;;5.90;4.10;;;26.90;48.20;;;;;;4984709;28;20636;-63
2022/07/21 12:17:32;;;;;;;5.23;3.13;;;27.20;48.00;;;;;;4986547;28;20257;-60
2022/07/21 12:19:58;;;;;;;5.50;3.97;;;27.50;46.50;;;;;;4986534;28;20172;-60
2022/07/21 12:22:46;;;;;;;4.20;3.80;;;27.30;46.60;;;;;;4977203;28;20673;-59
2022/07/21 12:25:17;;;;;;;5.33;3.67;;;27.30;47.90;;;;;;4970379;28;20228;-60
2022/07/21 12:27:45;;;;;;;3.60;3.30;;;27.60;47.60;;;;;;4970621;28;20209;-60
2022/07/21 12:30:38;;;;;;;3.93;3.40;;;27.70;45.30;;;;;;4985958;28;20191;-60
2022/07/21 12:33:08;;;;;;;3.73;3.40;;;28.10;46.10;;;;;;4981304;28;20188;-60
2022/07/21 12:35:36;;;;;;;5.90;3.93;;;28.40;45.30;;;;;;4987886;28;20176;-61
2022/07/21 12:38:03;;;;;;;7.93;4.57;;;28.50;44.70;;;;;;4988628;28;20201;-60
2022/07/21 12:40:31;;;;;;;4.67;4.27;;;28.70;44.40;;;;;;4990280;28;20177;-60